createdAt,value
2023-04-27T00:03:35.114Z,3.91
2023-04-27T00:08:36.344Z,3.90
2023-04-27T00:13:37.181Z,3.82
2023-04-27T00:18:37.917Z,3.76
2023-04-27T00:23:38.854Z,3.71
2023-04-27T00:28:39.598Z,3.71
2023-04-27T00:33:40.400Z,3.65
2023-04-27T00:38:41.301Z,3.64
2023-04-27T00:43:44.023Z,3.68
2023-04-27T00:48:45.978Z,3.67
2023-04-27T00:53:48.400Z,3.69
2023-04-27T00:58:49.473Z,3.68
2023-04-27T01:03:50.888Z,3.54
2023-04-27T01:08:51.909Z,3.49
2023-04-27T01:13:53.198Z,3.48
2023-04-27T01:18:53.988Z,3.47
2023-04-27T01:23:54.992Z,3.46
2023-04-27T01:28:55.756Z,3.45
2023-04-27T01:33:56.655Z,3.42
2023-04-27T01:38:57.435Z,3.36
2023-04-27T01:43:58.264Z,3.36
2023-04-27T01:48:59.074Z,3.41
2023-04-27T01:54:00.028Z,3.21
2023-04-27T01:59:01.504Z,3.12
2023-04-27T02:04:03.458Z,3.24
2023-04-27T02:09:04.494Z,3.22
2023-04-27T02:14:05.314Z,3.16
2023-04-27T02:19:06.262Z,2.99
2023-04-27T02:24:09.631Z,2.99
2023-04-27T02:29:10.697Z,3.03
2023-04-27T02:34:11.976Z,3.12
2023-04-27T02:39:13.057Z,3.20
2023-04-27T02:44:14.844Z,3.18
2023-04-27T02:49:16.312Z,3.18
2023-04-27T02:54:17.756Z,3.07
2023-04-27T02:59:18.673Z,3.02
2023-04-27T03:04:19.693Z,3.01
2023-04-27T03:09:20.547Z,3.04
2023-04-27T03:14:22.671Z,3.01
2023-04-27T03:19:25.659Z,2.98
2023-04-27T03:24:26.906Z,3.02
2023-04-27T03:29:27.726Z,3.13
2023-04-27T03:34:28.799Z,3.21
2023-04-27T03:39:29.589Z,3.34
2023-04-27T03:44:32.650Z,3.44
2023-04-27T03:49:33.772Z,3.54
2023-04-27T03:54:34.783Z,3.49
2023-04-27T03:59:35.642Z,3.51
2023-04-27T04:04:37.951Z,3.57
2023-04-27T04:09:38.972Z,3.57
2023-04-27T04:14:39.839Z,3.62
2023-04-27T04:19:40.900Z,3.62
2023-04-27T04:24:42.032Z,3.72
2023-04-27T04:29:43.918Z,3.55
2023-04-27T04:34:50.360Z,3.62
2023-04-27T04:39:51.578Z,3.65
2023-04-27T04:44:52.508Z,3.79
2023-04-27T04:49:53.317Z,3.95
2023-04-27T04:54:54.735Z,4.15
2023-04-27T04:59:55.741Z,4.14
2023-04-27T05:04:56.907Z,4.20
2023-04-27T05:09:57.700Z,4.32
2023-04-27T05:14:58.516Z,4.66
2023-04-27T05:19:59.684Z,5.21
2023-04-27T05:25:00.945Z,5.79
2023-04-27T05:30:02.352Z,6.10
2023-04-27T05:35:04.788Z,6.46
2023-04-27T05:40:10.228Z,6.50
2023-04-27T05:45:11.276Z,6.48
2023-04-27T05:50:12.146Z,6.43
2023-04-27T05:55:13.115Z,6.55
2023-04-27T06:00:15.859Z,6.82
2023-04-27T06:05:16.913Z,7.35
2023-04-27T06:10:17.694Z,7.48
2023-04-27T06:15:18.733Z,7.42
2023-04-27T06:20:19.720Z,7.56
2023-04-27T06:25:21.585Z,7.50
2023-04-27T06:30:23.994Z,7.12
2023-04-27T06:35:24.982Z,7.04
2023-04-27T06:40:26.192Z,6.80
2023-04-27T06:45:27.196Z,7.13
2023-04-27T06:50:28.693Z,7.49
2023-04-27T06:55:30.236Z,8.08
2023-04-27T07:00:31.257Z,7.92
2023-04-27T07:05:33.120Z,8.17
2023-04-27T07:10:33.896Z,8.46
2023-04-27T07:15:34.813Z,8.25
2023-04-27T07:20:36.970Z,8.53
2023-04-27T07:25:39.490Z,8.64
2023-04-27T07:30:41.680Z,8.70
2023-04-27T07:35:42.606Z,8.88
2023-04-27T07:40:44.885Z,8.85
2023-04-27T07:45:45.728Z,8.96
2023-04-27T07:50:46.673Z,9.05
2023-04-27T07:55:47.663Z,8.80
2023-04-27T08:00:48.475Z,8.95
2023-04-27T08:05:49.655Z,9.12
2023-04-27T08:10:50.867Z,9.15
2023-04-27T08:15:57.525Z,9.04
2023-04-27T08:20:58.360Z,9.37
2023-04-27T08:25:59.712Z,9.45
2023-04-27T08:31:01.182Z,9.37
2023-04-27T08:36:02.243Z,9.47
2023-04-27T08:41:18.074Z,9.67
2023-04-27T08:46:26.640Z,9.98
2023-04-27T08:51:27.963Z,10.15
2023-04-27T08:56:29.884Z,10.10
2023-04-27T09:01:31.482Z,10.20
2023-04-27T09:06:34.519Z,10.14
2023-04-27T09:11:38.923Z,10.34
2023-04-27T09:16:39.873Z,10.58
2023-04-27T09:21:42.294Z,10.52
2023-04-27T09:26:49.288Z,10.56
2023-04-27T09:31:50.100Z,10.87
2023-04-27T09:36:51.669Z,10.43
2023-04-27T09:41:52.661Z,10.70
2023-04-27T09:46:57.540Z,10.84
2023-04-27T09:51:58.291Z,11.12
2023-04-27T09:57:31.485Z,11.48
2023-04-27T10:02:53.600Z,11.75
2023-04-27T10:07:55.658Z,11.57
2023-04-27T10:13:00.466Z,11.52
2023-04-27T10:18:05.339Z,11.76
2023-04-27T10:23:06.294Z,12.31
2023-04-27T10:28:07.408Z,12.19
2023-04-27T10:33:10.146Z,12.71
2023-04-27T10:38:26.084Z,12.39
2023-04-27T10:43:29.956Z,12.57
2023-04-27T10:48:30.717Z,12.91
2023-04-27T10:53:35.393Z,12.96
2023-04-27T10:58:48.265Z,12.34
2023-04-27T11:03:58.124Z,12.53
2023-04-27T11:08:59.838Z,13.01
2023-04-27T11:14:02.895Z,12.20
2023-04-27T11:19:04.902Z,12.47
2023-04-27T11:24:07.301Z,12.69
2023-04-27T11:29:11.689Z,12.68
2023-04-27T11:34:19.470Z,12.74
2023-04-27T11:39:22.015Z,13.43
2023-04-27T11:44:26.776Z,13.42
2023-04-27T11:49:27.637Z,13.00
2023-04-27T11:54:29.307Z,13.79
2023-04-27T11:59:30.222Z,13.21
2023-04-27T12:04:31.413Z,13.36
2023-04-27T12:09:32.257Z,13.58
2023-04-27T12:14:33.109Z,14.10
2023-04-27T12:19:34.069Z,14.20
2023-04-27T12:24:36.232Z,14.44
2023-04-27T12:29:37.316Z,14.15
2023-04-27T12:34:38.977Z,14.03
2023-04-27T12:39:40.080Z,14.48
2023-04-27T12:44:40.874Z,13.67
2023-04-27T12:49:41.631Z,14.18
2023-04-27T12:54:42.444Z,14.49
2023-04-27T12:59:43.320Z,13.82
2023-04-27T13:04:44.238Z,13.35
2023-04-27T13:09:45.181Z,13.50
2023-04-27T13:14:46.054Z,13.71
2023-04-27T13:19:46.814Z,13.93
2023-04-27T13:24:47.605Z,13.66
2023-04-27T13:29:50.425Z,13.22
2023-04-27T13:34:51.223Z,13.43
2023-04-27T13:39:52.337Z,13.12
2023-04-27T13:44:53.131Z,13.59
2023-04-27T13:49:54.152Z,13.76
2023-04-27T13:54:55.001Z,13.49
2023-04-27T13:59:55.928Z,13.67
2023-04-27T14:04:57.001Z,13.52
2023-04-27T14:09:57.840Z,13.27
2023-04-27T14:14:59.187Z,13.16
2023-04-27T14:20:00.005Z,13.29
2023-04-27T14:25:01.149Z,13.42
2023-04-27T14:30:03.068Z,13.27
2023-04-27T14:35:04.769Z,13.16
2023-04-27T14:40:07.367Z,13.53
2023-04-27T14:45:09.113Z,13.81
2023-04-27T14:50:10.891Z,13.87
2023-04-27T14:55:14.016Z,13.64
2023-04-27T15:00:16.041Z,13.59
2023-04-27T15:05:16.857Z,13.48
2023-04-27T15:10:17.986Z,13.54
2023-04-27T15:15:18.749Z,13.82
2023-04-27T15:20:19.773Z,14.10
2023-04-27T15:25:20.891Z,14.19
2023-04-27T15:30:21.985Z,13.99
2023-04-27T15:35:22.746Z,14.00
2023-04-27T15:40:23.963Z,14.10
2023-04-27T15:45:25.080Z,13.84
2023-04-27T15:50:25.959Z,13.65
2023-04-27T15:55:26.822Z,13.73
2023-04-27T16:00:27.774Z,13.87
2023-04-27T16:05:28.664Z,13.66
2023-04-27T16:10:29.663Z,13.66
2023-04-27T16:15:30.434Z,13.77
2023-04-27T16:20:31.607Z,13.79
2023-04-27T16:25:33.160Z,13.41
2023-04-27T16:30:34.289Z,13.37
2023-04-27T16:35:35.166Z,13.41
2023-04-27T16:40:36.359Z,13.42
2023-04-27T16:45:37.907Z,13.10
2023-04-27T16:50:40.071Z,13.00
2023-04-27T16:55:43.719Z,12.88
2023-04-27T17:00:45.095Z,12.93
2023-04-27T17:05:46.195Z,12.92
2023-04-27T17:10:46.974Z,13.10
2023-04-27T17:15:49.059Z,13.00
2023-04-27T17:20:49.874Z,12.69
2023-04-27T17:25:50.651Z,12.47
2023-04-27T17:30:52.516Z,12.28
2023-04-27T17:35:53.288Z,12.25
2023-04-27T17:40:54.378Z,12.26
2023-04-27T17:45:55.181Z,12.15
2023-04-27T17:50:56.008Z,12.07
2023-04-27T17:55:56.759Z,12.02
2023-04-27T18:00:57.814Z,11.91
2023-04-27T18:05:58.707Z,11.87
2023-04-27T18:10:59.544Z,11.76
2023-04-27T18:16:00.359Z,11.66
2023-04-27T18:21:01.432Z,11.68
2023-04-27T18:26:02.419Z,11.49
2023-04-27T18:31:03.283Z,11.50
2023-04-27T18:36:04.182Z,11.40
2023-04-27T18:41:05.237Z,11.42
2023-04-27T18:46:07.317Z,11.44
2023-04-27T18:51:08.252Z,11.40
2023-04-27T18:56:09.598Z,11.28
2023-04-27T19:01:21.545Z,11.22
2023-04-27T19:06:22.469Z,11.23
2023-04-27T19:11:24.670Z,11.17
2023-04-27T19:16:25.602Z,11.11
2023-04-27T19:21:26.817Z,11.03
2023-04-27T19:26:29.629Z,11.06
2023-04-27T19:31:30.739Z,11.10
2023-04-27T19:36:32.247Z,11.10
2023-04-27T19:41:33.076Z,11.08
2023-04-27T19:46:33.883Z,10.94
2023-04-27T19:51:34.799Z,10.86
2023-04-27T19:56:35.557Z,10.86
2023-04-27T20:01:36.657Z,10.78
2023-04-27T20:06:38.893Z,10.87
2023-04-27T20:11:39.755Z,10.87
2023-04-27T20:16:40.844Z,10.73
2023-04-27T20:21:42.732Z,10.73
2023-04-27T20:26:43.587Z,10.80
2023-04-27T20:31:45.010Z,10.78
2023-04-27T20:36:46.014Z,10.71
2023-04-27T20:41:46.848Z,10.75
2023-04-27T20:46:47.878Z,10.66
2023-04-27T20:51:48.654Z,10.68
2023-04-27T20:56:50.038Z,10.71
2023-04-27T21:01:51.665Z,10.69
2023-04-27T21:06:52.831Z,10.69
2023-04-27T21:11:53.674Z,10.66
2023-04-27T21:16:55.092Z,10.56
2023-04-27T21:21:56.332Z,10.56
2023-04-27T21:26:57.472Z,10.58
2023-04-27T21:31:58.461Z,10.62
2023-04-27T21:36:59.251Z,10.49
2023-04-27T21:42:00.165Z,10.46
2023-04-27T21:47:01.286Z,10.43
2023-04-27T21:52:02.125Z,10.41
2023-04-27T21:57:03.365Z,10.34
2023-04-27T22:02:05.804Z,10.41
2023-04-27T22:07:09.310Z,10.39
2023-04-27T22:12:10.089Z,10.35
2023-04-27T22:17:11.742Z,10.19
2023-04-27T22:22:12.498Z,10.17
2023-04-27T22:27:13.380Z,10.06
2023-04-27T22:32:15.385Z,10.11
2023-04-27T22:37:18.076Z,10.16
2023-04-27T22:42:18.799Z,10.04
2023-04-27T22:47:19.848Z,10.02
2023-04-27T22:52:21.080Z,9.97
2023-04-27T22:57:21.854Z,10.02
2023-04-27T23:02:25.779Z,10.00
2023-04-27T23:07:27.713Z,9.95
2023-04-27T23:12:29.963Z,9.91
2023-04-27T23:17:31.104Z,9.86
2023-04-27T23:22:32.064Z,9.96
2023-04-27T23:27:32.849Z,9.94
2023-04-27T23:32:34.969Z,9.79
2023-04-27T23:37:35.744Z,9.66
2023-04-27T23:42:36.542Z,9.76
2023-04-27T23:47:37.327Z,9.78
2023-04-27T23:52:38.424Z,9.80
2023-04-27T23:57:39.157Z,9.68
